QAK4889 MMTJ-MMSD
Flight info
| Callsign | QAK4889 |
|---|---|
| Flight time | N/A |
| Altitude | 41000 |
| Route | SIDGA1B SIDGA UT6 IMUSU UT25 LTO/N0404F170 V4 ENEKO ENEKO1B |
| Aircraft | C25C/M-SDE2E3FGHRWXY/LB1 |
Departure
| Time | 2026-05-04 05:47 |
|---|---|
| Airport | General Abelardo L. Rodriguez International Airport (MMTJ) |
Arrival
| Time | N/A |
|---|---|
| Airport | Los Cabos International Airport (MMSD) |
| Time | Latitude | Longitude | Altitude | Speed | Heading |
|---|---|---|---|---|---|
| 2026-05-04 05:34 | 32.54515 | -116.98007 | 464 ft | 0 kts | 246° |
| 2026-05-04 05:38 | 32.54513 | -116.98009 | 464 ft | 1 kts | 219° |
| 2026-05-04 05:38 | 32.54502 | -116.98000 | 464 ft | 6 kts | 124° |
| 2026-05-04 05:39 | 32.54482 | -116.97970 | 464 ft | 4 kts | 175° |
| 2026-05-04 05:39 | 32.54397 | -116.97947 | 465 ft | 7 kts | 100° |
| 2026-05-04 05:39 | 32.54389 | -116.97889 | 464 ft | 7 kts | 99° |
| 2026-05-04 05:40 | 32.54416 | -116.97782 | 464 ft | 6 kts | 44° |
| 2026-05-04 05:40 | 32.54416 | -116.97732 | 464 ft | 8 kts | 98° |
| 2026-05-04 05:40 | 32.54406 | -116.97656 | 464 ft | 11 kts | 99° |
| 2026-05-04 05:41 | 32.54393 | -116.97556 | 464 ft | 13 kts | 98° |
| 2026-05-04 05:41 | 32.54380 | -116.97455 | 464 ft | 11 kts | 98° |
| 2026-05-04 05:41 | 32.54334 | -116.97412 | 464 ft | 8 kts | 164° |
| 2026-05-04 05:41 | 32.54321 | -116.97360 | 464 ft | 9 kts | 96° |
| 2026-05-04 05:42 | 32.54308 | -116.97256 | 464 ft | 15 kts | 98° |
| 2026-05-04 05:42 | 32.54292 | -116.97133 | 464 ft | 15 kts | 99° |
| 2026-05-04 05:42 | 32.54275 | -116.97011 | 464 ft | 15 kts | 98° |
| 2026-05-04 05:42 | 32.54259 | -116.96891 | 464 ft | 15 kts | 99° |
| 2026-05-04 05:43 | 32.54243 | -116.96771 | 464 ft | 15 kts | 99° |
| 2026-05-04 05:43 | 32.54227 | -116.96652 | 464 ft | 14 kts | 98° |
| 2026-05-04 05:43 | 32.54212 | -116.96535 | 464 ft | 14 kts | 99° |
| 2026-05-04 05:45 | 32.54098 | -116.95679 | 464 ft | 16 kts | 98° |
| 2026-05-04 05:45 | 32.54081 | -116.95552 | 464 ft | 15 kts | 98° |
| 2026-05-04 05:47 | 32.54035 | -116.96465 | 519 ft | 151 kts | 279° |
| 2026-05-04 05:47 | 32.54270 | -116.97915 | 1362 ft | 193 kts | 281° |
| 2026-05-04 05:47 | 32.54146 | -116.99415 | 3273 ft | 181 kts | 245° |
| 2026-05-04 05:48 | 32.53551 | -117.00646 | 5211 ft | 164 kts | 249° |
| 2026-05-04 05:48 | 32.53195 | -117.01989 | 6588 ft | 184 kts | 253° |
| 2026-05-04 05:48 | 32.52803 | -117.03542 | 7386 ft | 209 kts | 254° |
| 2026-05-04 05:48 | 32.52385 | -117.05312 | 7910 ft | 237 kts | 254° |
| 2026-05-04 05:49 | 32.51920 | -117.07266 | 8669 ft | 249 kts | 251° |
| 2026-05-04 05:49 | 32.51026 | -117.08993 | 9848 ft | 249 kts | 229° |
| 2026-05-04 05:49 | 32.49655 | -117.10247 | 10818 ft | 255 kts | 209° |
| 2026-05-04 05:49 | 32.47920 | -117.10810 | 11754 ft | 267 kts | 189° |
| 2026-05-04 05:51 | 32.40075 | -116.96372 | 17088 ft | 351 kts | 117° |
| 2026-05-04 05:51 | 32.39244 | -116.93634 | 17776 ft | 356 kts | 116° |
| 2026-05-04 05:52 | 32.38410 | -116.90852 | 18444 ft | 362 kts | 116° |
| 2026-05-04 05:52 | 32.37570 | -116.88031 | 19043 ft | 365 kts | 117° |
| 2026-05-04 05:52 | 32.36715 | -116.85190 | 19669 ft | 369 kts | 117° |
| 2026-05-04 05:52 | 32.35848 | -116.82326 | 20294 ft | 371 kts | 117° |
| 2026-05-04 05:53 | 32.34978 | -116.79438 | 20898 ft | 375 kts | 117° |
| 2026-05-04 05:54 | 32.25275 | -116.61184 | 24854 ft | 386 kts | 134° |
| 2026-05-04 05:55 | 32.23753 | -116.58551 | 25322 ft | 391 kts | 134° |
| 2026-05-04 05:55 | 32.22214 | -116.55892 | 25827 ft | 393 kts | 134° |
| 2026-05-04 05:55 | 32.20652 | -116.53236 | 26328 ft | 393 kts | 138° |
| 2026-05-04 05:55 | 32.18726 | -116.51080 | 26777 ft | 375 kts | 156° |
| 2026-05-04 05:56 | 32.16568 | -116.49369 | 27219 ft | 374 kts | 159° |
| 2026-05-04 05:56 | 32.14367 | -116.47723 | 27716 ft | 376 kts | 161° |
| 2026-05-04 05:56 | 32.12138 | -116.46074 | 28212 ft | 380 kts | 160° |
| 2026-05-04 05:56 | 32.09902 | -116.44377 | 28725 ft | 384 kts | 160° |
| 2026-05-04 05:57 | 32.07650 | -116.42653 | 29198 ft | 388 kts | 160° |
| 2026-05-04 05:57 | 32.05371 | -116.40929 | 29649 ft | 391 kts | 160° |
| 2026-05-04 05:57 | 32.03102 | -116.39218 | 30108 ft | 393 kts | 160° |
| 2026-05-04 05:57 | 32.00797 | -116.37477 | 30594 ft | 394 kts | 160° |
| 2026-05-04 05:58 | 31.98498 | -116.35735 | 31059 ft | 393 kts | 161° |
| 2026-05-04 05:58 | 31.96197 | -116.33998 | 31536 ft | 393 kts | 161° |
| 2026-05-04 05:58 | 31.93894 | -116.32266 | 31990 ft | 393 kts | 161° |
| 2026-05-04 05:58 | 31.91595 | -116.30532 | 32452 ft | 392 kts | 161° |
| 2026-05-04 05:59 | 31.89296 | -116.28798 | 32891 ft | 392 kts | 161° |
| 2026-05-04 05:59 | 31.86995 | -116.27067 | 33347 ft | 392 kts | 162° |
| 2026-05-04 05:59 | 31.84698 | -116.25339 | 33807 ft | 392 kts | 162° |
| 2026-05-04 05:59 | 31.82398 | -116.23609 | 34231 ft | 392 kts | 162° |
| 2026-05-04 06:00 | 31.80101 | -116.21883 | 34632 ft | 393 kts | 162° |
| 2026-05-04 06:00 | 31.77796 | -116.20153 | 35043 ft | 393 kts | 162° |
| 2026-05-04 06:00 | 31.75489 | -116.18422 | 35449 ft | 393 kts | 162° |
| 2026-05-04 06:00 | 31.73228 | -116.16546 | 35839 ft | 403 kts | 156° |
| 2026-05-04 06:01 | 31.71007 | -116.14541 | 36223 ft | 402 kts | 156° |
| 2026-05-04 06:01 | 31.68773 | -116.12562 | 36608 ft | 402 kts | 157° |
| 2026-05-04 06:03 | 31.53130 | -115.98651 | 39330 ft | 402 kts | 156° |
| 2026-05-04 06:03 | 31.50905 | -115.96677 | 39675 ft | 401 kts | 156° |
| 2026-05-04 06:05 | 31.35215 | -115.82800 | 41058 ft | 422 kts | 154° |
| 2026-05-04 06:05 | 31.30448 | -115.78592 | 41069 ft | 436 kts | 154° |
| 2026-05-04 06:06 | 31.25544 | -115.74267 | 41059 ft | 447 kts | 154° |
| 2026-05-04 06:06 | 31.20519 | -115.69844 | 41051 ft | 458 kts | 153° |